createdAt,value
2022-08-14T00:00:10.887Z,63.42
2022-08-14T00:02:45.008Z,64.79
2022-08-14T00:05:26.713Z,64.88
2022-08-14T00:07:57.491Z,64.88
2022-08-14T00:10:53.031Z,64.59
2022-08-14T00:13:00.339Z,64.66
2022-08-14T00:15:43.744Z,65.71
2022-08-14T00:18:09.026Z,65.71
2022-08-14T00:20:43.383Z,66.49
2022-08-14T00:23:17.035Z,64.99
2022-08-14T00:25:53.941Z,64.99
2022-08-14T00:28:22.705Z,65.72
2022-08-14T00:31:13.574Z,65.26
2022-08-14T00:33:51.697Z,66.52
2022-08-14T00:36:36.597Z,65.61
2022-08-14T00:38:48.817Z,65.61
2022-08-14T00:41:19.196Z,67.33
2022-08-14T00:43:51.419Z,66.31
2022-08-14T00:46:32.871Z,66.31
2022-08-14T00:48:53.605Z,68.00
2022-08-14T00:51:24.430Z,68.00
2022-08-14T00:53:56.471Z,69.24
2022-08-14T00:56:31.258Z,69.03
2022-08-14T00:58:59.143Z,68.54
2022-08-14T01:01:29.861Z,68.54
2022-08-14T01:04:02.098Z,70.52
2022-08-14T01:06:34.472Z,69.09
2022-08-14T01:09:05.102Z,69.79
2022-08-14T01:11:38.471Z,69.79
2022-08-14T01:14:25.846Z,70.83
2022-08-14T01:16:42.791Z,71.52
2022-08-14T01:19:15.731Z,71.52
2022-08-14T01:21:46.774Z,71.83
2022-08-14T01:24:30.259Z,71.83
2022-08-14T01:26:50.840Z,74.52
2022-08-14T01:29:35.147Z,78.15
2022-08-14T01:31:53.539Z,73.73
2022-08-14T01:35:17.179Z,73.73
2022-08-14T01:36:56.753Z,75.88
2022-08-14T01:39:27.252Z,76.80
2022-08-14T01:41:59.217Z,75.31
2022-08-14T01:44:33.157Z,75.89
2022-08-14T01:47:05.939Z,76.45
2022-08-14T01:49:46.063Z,74.98
2022-08-14T01:52:13.274Z,74.98
2022-08-14T01:54:41.157Z,75.17
2022-08-14T01:57:13.137Z,75.33
2022-08-14T01:59:43.830Z,75.75
2022-08-14T02:02:14.691Z,76.85
2022-08-14T02:04:55.773Z,76.70
2022-08-14T02:07:34.950Z,76.70
2022-08-14T02:09:55.810Z,76.77
2022-08-14T02:12:26.313Z,76.77
2022-08-14T02:15:00.320Z,78.42
2022-08-14T02:17:27.280Z,78.03
2022-08-14T02:19:57.918Z,74.91
2022-08-14T02:22:32.667Z,76.17
2022-08-14T02:25:01.750Z,76.17
2022-08-14T02:28:24.891Z,76.11
2022-08-14T02:30:05.971Z,78.95
2022-08-14T02:32:38.017Z,76.85
2022-08-14T02:35:11.022Z,78.12
2022-08-14T02:37:47.216Z,76.67
2022-08-14T02:40:13.270Z,76.67
2022-08-14T02:42:54.649Z,78.48
2022-08-14T02:45:15.601Z,78.00
2022-08-14T02:47:47.732Z,78.00
2022-08-14T02:50:19.553Z,79.60
2022-08-14T02:52:57.719Z,78.75
2022-08-14T02:55:21.914Z,80.26
2022-08-14T02:58:02.913Z,79.64
2022-08-14T03:00:24.685Z,80.54
2022-08-14T03:02:59.114Z,80.17
2022-08-14T03:05:28.088Z,82.38
2022-08-14T03:08:34.064Z,82.38
2022-08-14T03:11:07.617Z,83.90
2022-08-14T03:13:41.321Z,82.33
2022-08-14T03:16:19.766Z,82.69
2022-08-14T03:18:52.328Z,82.69
2022-08-14T03:21:23.993Z,82.46
2022-08-14T03:23:55.129Z,84.19
2022-08-14T03:26:29.844Z,84.66
2022-08-14T03:29:01.191Z,84.12
2022-08-14T03:31:30.751Z,83.20
2022-08-14T03:34:02.592Z,85.48
2022-08-14T03:37:37.850Z,82.73
2022-08-14T03:39:10.842Z,82.73
2022-08-14T03:41:40.083Z,82.71
2022-08-14T03:45:25.403Z,82.71
2022-08-14T03:46:54.899Z,84.50
2022-08-14T03:49:16.392Z,83.37
2022-08-14T03:51:48.468Z,84.32
2022-08-14T03:54:20.578Z,82.00
2022-08-14T03:56:51.136Z,84.33
2022-08-14T03:59:23.292Z,84.33
2022-08-14T04:01:58.094Z,82.34
2022-08-14T04:04:25.739Z,82.34
2022-08-14T04:06:58.737Z,83.10
2022-08-14T04:09:28.380Z,83.10
2022-08-14T04:12:00.065Z,86.03
2022-08-14T04:14:32.089Z,82.86
2022-08-14T04:17:10.156Z,81.91
2022-08-14T04:19:39.924Z,82.12
2022-08-14T04:22:12.155Z,83.27
2022-08-14T04:24:44.277Z,83.27
2022-08-14T04:27:16.772Z,84.01
2022-08-14T04:29:47.533Z,84.87
2022-08-14T04:32:57.475Z,84.65
2022-08-14T04:34:52.121Z,81.65
2022-08-14T04:37:53.671Z,83.16
2022-08-14T04:40:18.587Z,83.16
2022-08-14T04:42:51.577Z,83.88
2022-08-14T04:45:23.247Z,83.88
2022-08-14T04:47:54.124Z,80.70
2022-08-14T04:50:33.678Z,81.90
2022-08-14T04:52:56.663Z,81.01
2022-08-14T04:55:27.783Z,81.01
2022-08-14T04:57:58.315Z,81.86
2022-08-14T05:00:29.323Z,81.86
2022-08-14T05:03:01.132Z,79.29
2022-08-14T05:05:32.343Z,81.53
2022-08-14T05:08:09.662Z,81.53
2022-08-14T05:10:44.262Z,80.52
2022-08-14T05:13:15.844Z,80.52
2022-08-14T05:15:47.944Z,79.17
2022-08-14T05:19:16.870Z,78.63
2022-08-14T05:21:54.740Z,78.79
2022-08-14T05:23:29.568Z,77.68
2022-08-14T05:26:17.556Z,78.43
2022-08-14T05:28:48.598Z,77.21
2022-08-14T05:31:20.689Z,78.09
2022-08-14T05:33:56.947Z,78.09
2022-08-14T05:36:24.106Z,77.87
2022-08-14T05:38:55.404Z,77.87
2022-08-14T05:41:27.721Z,77.17
2022-08-14T05:43:57.857Z,77.17
2022-08-14T05:46:28.154Z,77.26
2022-08-14T05:48:59.760Z,75.85
2022-08-14T05:51:30.623Z,77.66
2022-08-14T05:54:11.342Z,77.66
2022-08-14T05:56:33.187Z,78.06
2022-08-14T05:59:05.548Z,78.78
2022-08-14T06:01:40.392Z,86.64
2022-08-14T06:04:10.870Z,94.26
2022-08-14T06:06:43.005Z,100.00
2022-08-14T06:09:13.503Z,100.00
2022-08-14T06:11:44.134Z,100.00
2022-08-14T06:14:20.802Z,100.00
2022-08-14T06:16:48.752Z,100.00
2022-08-14T06:19:19.220Z,100.00
2022-08-14T06:21:53.245Z,100.00
2022-08-14T06:24:22.007Z,100.00
2022-08-14T06:26:54.244Z,100.00
2022-08-14T06:29:25.858Z,100.00
2022-08-14T06:32:00.442Z,100.00
2022-08-14T06:35:03.395Z,100.00
2022-08-14T06:37:04.635Z,100.00
2022-08-14T06:39:36.364Z,100.00
2022-08-14T06:42:07.137Z,100.00
2022-08-14T06:44:38.735Z,100.00
2022-08-14T06:47:09.100Z,100.00
2022-08-14T06:49:40.588Z,100.00
2022-08-14T06:52:15.140Z,100.00
2022-08-14T06:55:05.212Z,100.00
2022-08-14T06:57:40.676Z,100.00
2022-08-14T07:00:22.223Z,100.00
2022-08-14T07:02:47.833Z,100.00
2022-08-14T07:05:23.230Z,100.00
2022-08-14T07:07:51.083Z,100.00
2022-08-14T07:10:21.492Z,100.00
2022-08-14T07:13:01.754Z,100.00
2022-08-14T07:15:23.983Z,100.00
2022-08-14T07:17:56.235Z,100.00
2022-08-14T07:20:31.006Z,100.00
2022-08-14T07:23:08.559Z,100.00
2022-08-14T07:25:40.088Z,100.00
2022-08-14T07:28:21.679Z,100.00
2022-08-14T07:30:53.948Z,100.00
2022-08-14T07:33:29.996Z,100.00
2022-08-14T07:36:02.510Z,100.00
2022-08-14T07:38:38.033Z,100.00
2022-08-14T07:41:14.483Z,100.00
2022-08-14T07:43:40.914Z,100.00
2022-08-14T07:46:15.440Z,100.00
2022-08-14T07:48:48.073Z,100.00
2022-08-14T07:51:23.228Z,100.00
2022-08-14T07:53:57.195Z,100.00
2022-08-14T07:56:47.134Z,100.00
2022-08-14T07:59:01.157Z,100.00
2022-08-14T08:01:31.908Z,100.00
2022-08-14T08:04:04.215Z,100.00
2022-08-14T08:06:37.033Z,100.00
2022-08-14T08:09:10.392Z,100.00
2022-08-14T08:11:42.687Z,100.00
2022-08-14T08:14:17.511Z,100.00
2022-08-14T08:16:51.236Z,100.00
2022-08-14T08:19:22.864Z,100.00
2022-08-14T08:21:53.246Z,100.00
2022-08-14T08:24:24.704Z,100.00
2022-08-14T08:26:56.602Z,100.00
2022-08-14T08:29:28.985Z,100.00
2022-08-14T08:32:01.633Z,100.00
2022-08-14T08:34:32.396Z,100.00
2022-08-14T08:37:07.352Z,100.00
2022-08-14T08:40:03.324Z,100.00
2022-08-14T08:42:38.329Z,99.73
2022-08-14T08:45:12.002Z,99.73
2022-08-14T08:47:43.681Z,100.00
2022-08-14T08:50:31.698Z,98.49
2022-08-14T08:52:57.736Z,99.04
2022-08-14T08:55:29.984Z,98.81
2022-08-14T08:58:12.514Z,100.00
2022-08-14T09:00:40.196Z,100.00
2022-08-14T09:03:15.728Z,100.00
2022-08-14T09:06:54.446Z,94.30
2022-08-14T09:08:49.152Z,94.30
2022-08-14T09:11:21.148Z,89.61
2022-08-14T09:14:14.043Z,90.92
2022-08-14T09:16:50.518Z,84.70
2022-08-14T09:19:21.191Z,84.70
2022-08-14T09:21:54.897Z,79.18
2022-08-14T09:24:29.502Z,79.18
2022-08-14T09:26:57.380Z,73.18
2022-08-14T09:29:28.755Z,73.18
2022-08-14T09:32:02.973Z,73.80
2022-08-14T09:34:59.103Z,61.61
2022-08-14T09:38:00.589Z,61.78
2022-08-14T09:40:49.808Z,61.78
2022-08-14T09:43:43.799Z,60.77
2022-08-14T09:46:17.029Z,63.44
2022-08-14T09:48:46.452Z,52.21
2022-08-14T09:51:25.352Z,49.42
2022-08-14T09:54:19.524Z,49.42
2022-08-14T09:56:56.594Z,48.23
2022-08-14T09:59:22.973Z,48.23
2022-08-14T10:01:53.633Z,49.95
2022-08-14T10:04:33.461Z,46.00
2022-08-14T10:06:58.822Z,46.00
2022-08-14T10:09:29.405Z,45.77
2022-08-14T10:12:01.389Z,37.37
2022-08-14T10:14:36.861Z,37.37
2022-08-14T10:17:08.459Z,38.09
2022-08-14T10:19:42.148Z,40.45
2022-08-14T10:23:13.150Z,42.42
2022-08-14T10:24:46.471Z,42.42
2022-08-14T10:27:20.782Z,37.94
2022-08-14T10:29:58.373Z,36.98
2022-08-14T10:32:41.887Z,36.98
2022-08-14T10:35:14.615Z,40.42
2022-08-14T10:38:03.710Z,36.09
2022-08-14T10:40:44.716Z,36.09
2022-08-14T10:43:23.029Z,39.22
2022-08-14T10:46:03.684Z,34.38
2022-08-14T10:48:36.627Z,34.60
2022-08-14T10:51:01.822Z,35.20
2022-08-14T10:53:39.225Z,32.98
2022-08-14T10:56:34.136Z,34.53
2022-08-14T10:59:07.050Z,32.20
2022-08-14T11:01:41.226Z,31.24
2022-08-14T11:04:25.092Z,31.22
2022-08-14T11:06:56.460Z,31.22
2022-08-14T11:09:31.758Z,30.67
2022-08-14T11:12:33.928Z,29.60
2022-08-14T11:14:30.743Z,30.78
2022-08-14T11:17:02.532Z,34.73
2022-08-14T11:19:38.693Z,36.50
2022-08-14T11:22:15.521Z,36.50
2022-08-14T11:24:53.844Z,36.74
2022-08-14T11:27:21.535Z,36.74
2022-08-14T11:30:00.302Z,36.40
2022-08-14T11:32:28.432Z,36.40
2022-08-14T11:35:01.245Z,36.51
2022-08-14T11:37:40.415Z,38.22
2022-08-14T11:40:05.393Z,38.48
2022-08-14T11:42:58.307Z,38.48
2022-08-14T11:45:11.498Z,38.59
2022-08-14T11:47:43.929Z,40.88
2022-08-14T11:50:33.812Z,42.65
2022-08-14T11:52:53.756Z,42.65
2022-08-14T11:55:26.900Z,41.15
2022-08-14T11:58:05.536Z,38.37
2022-08-14T12:00:52.585Z,37.19
2022-08-14T12:03:26.920Z,38.48
2022-08-14T12:06:05.996Z,37.08
2022-08-14T12:08:38.845Z,37.21
2022-08-14T12:11:12.109Z,36.11
2022-08-14T12:13:44.386Z,36.11
2022-08-14T12:16:20.595Z,39.44
2022-08-14T12:18:49.574Z,39.44
2022-08-14T12:21:22.638Z,40.71
2022-08-14T12:24:01.978Z,38.90
2022-08-14T12:26:40.783Z,38.90
2022-08-14T12:29:13.660Z,39.42
2022-08-14T12:31:46.994Z,38.72
2022-08-14T12:34:20.100Z,38.15
2022-08-14T12:36:49.696Z,38.15
2022-08-14T12:39:22.264Z,37.90
2022-08-14T12:41:57.109Z,39.49
2022-08-14T12:44:39.172Z,38.73
2022-08-14T12:47:13.595Z,38.57
2022-08-14T12:50:10.395Z,38.57
2022-08-14T12:53:01.994Z,36.06
2022-08-14T12:55:18.844Z,31.69
2022-08-14T12:57:53.517Z,31.69
2022-08-14T13:00:24.967Z,30.48
2022-08-14T13:02:56.572Z,29.21
2022-08-14T13:05:29.310Z,29.21
2022-08-14T13:08:01.925Z,27.35
2022-08-14T13:10:47.518Z,28.15
2022-08-14T13:13:15.708Z,25.98
2022-08-14T13:15:43.035Z,28.19
2022-08-14T13:18:17.720Z,28.81
2022-08-14T13:20:52.142Z,31.93
2022-08-14T13:23:31.652Z,31.93
2022-08-14T13:25:56.815Z,30.78
2022-08-14T13:28:33.009Z,30.69
2022-08-14T13:31:01.774Z,32.57
2022-08-14T13:33:34.033Z,35.63
2022-08-14T13:36:06.460Z,35.63
2022-08-14T13:38:39.536Z,36.44
2022-08-14T13:41:12.427Z,39.08
2022-08-14T13:43:49.276Z,39.08
2022-08-14T13:46:18.022Z,38.79
2022-08-14T13:48:48.951Z,40.06
2022-08-14T13:51:24.166Z,38.74
2022-08-14T13:54:09.927Z,39.35
2022-08-14T13:56:36.746Z,39.35
2022-08-14T13:59:05.611Z,39.42
2022-08-14T14:01:43.812Z,40.17
2022-08-14T14:04:32.157Z,41.77
2022-08-14T14:07:04.404Z,44.05
2022-08-14T14:09:52.552Z,44.05
2022-08-14T14:12:36.514Z,45.60
2022-08-14T14:14:51.718Z,47.19
2022-08-14T14:17:18.627Z,48.95
2022-08-14T14:19:49.146Z,48.80
2022-08-14T14:23:01.826Z,49.93
2022-08-14T14:24:53.455Z,49.93
2022-08-14T14:27:40.745Z,49.62
2022-08-14T14:30:01.321Z,49.43
2022-08-14T14:32:36.299Z,48.78
2022-08-14T14:35:17.881Z,50.54
2022-08-14T14:37:48.911Z,50.81
2022-08-14T14:40:53.979Z,50.81
2022-08-14T14:42:53.308Z,58.39
2022-08-14T14:45:25.927Z,60.67
2022-08-14T14:47:59.042Z,65.46
2022-08-14T14:50:28.789Z,60.37
2022-08-14T14:53:12.926Z,60.37
2022-08-14T14:55:54.257Z,68.13
2022-08-14T14:58:07.178Z,70.05
2022-08-14T15:00:39.429Z,70.05
2022-08-14T15:03:11.221Z,66.02
2022-08-14T15:05:41.553Z,65.46
2022-08-14T15:08:17.126Z,69.30
2022-08-14T15:10:44.337Z,69.30
2022-08-14T15:13:16.294Z,70.53
2022-08-14T15:15:46.656Z,70.53
2022-08-14T15:18:37.898Z,67.50
2022-08-14T15:20:50.735Z,67.50
2022-08-14T15:23:22.227Z,64.90
2022-08-14T15:25:53.521Z,58.00
2022-08-14T15:28:25.127Z,58.00
2022-08-14T15:30:59.110Z,57.71
2022-08-14T15:33:27.887Z,54.08
2022-08-14T15:36:00.149Z,57.01
2022-08-14T15:38:37.977Z,58.79
2022-08-14T15:41:05.011Z,58.79
2022-08-14T15:43:37.374Z,58.41
2022-08-14T15:46:10.593Z,55.38
2022-08-14T15:48:44.044Z,53.86
2022-08-14T15:51:14.672Z,53.80
2022-08-14T15:53:46.824Z,52.68
2022-08-14T15:56:42.043Z,54.11
2022-08-14T15:58:52.583Z,52.10
2022-08-14T16:01:50.692Z,52.10
2022-08-14T16:03:56.753Z,51.80
2022-08-14T16:06:28.901Z,52.82
2022-08-14T16:09:07.952Z,52.82
2022-08-14T16:11:32.700Z,53.61
2022-08-14T16:14:06.866Z,56.04
2022-08-14T16:16:51.679Z,59.42
2022-08-14T16:19:09.782Z,58.39
2022-08-14T16:22:02.320Z,58.39
2022-08-14T16:24:27.053Z,57.86
2022-08-14T16:26:51.947Z,58.53
2022-08-14T16:29:18.488Z,59.26
2022-08-14T16:31:48.934Z,59.25
2022-08-14T16:34:46.346Z,59.88
2022-08-14T16:39:39.596Z,51.47
2022-08-14T16:42:40.013Z,49.20
2022-08-14T16:44:46.488Z,49.33
2022-08-14T16:47:16.901Z,50.81
2022-08-14T16:50:05.125Z,50.58
2022-08-14T16:52:25.962Z,50.58
2022-08-14T16:54:51.711Z,50.60
2022-08-14T16:57:31.612Z,50.43
2022-08-14T17:00:00.883Z,52.24
2022-08-14T17:02:40.624Z,55.43
2022-08-14T17:05:23.250Z,55.37
2022-08-14T17:08:32.343Z,53.85
2022-08-14T17:11:10.928Z,54.27
2022-08-14T17:13:58.445Z,54.27
2022-08-14T17:16:24.706Z,51.44
2022-08-14T17:21:55.420Z,52.81
2022-08-14T17:24:57.702Z,54.72
2022-08-14T17:27:18.393Z,58.04
2022-08-14T17:29:54.535Z,58.13
2022-08-14T17:32:28.255Z,58.13
2022-08-14T17:34:51.043Z,58.81
2022-08-14T17:37:55.864Z,59.88
2022-08-14T17:40:23.277Z,59.88
2022-08-14T17:43:02.117Z,61.52
2022-08-14T17:45:38.958Z,60.62
2022-08-14T17:49:14.797Z,61.35
2022-08-14T17:51:01.905Z,56.06
2022-08-14T17:53:36.678Z,56.06
2022-08-14T17:56:10.297Z,57.80
2022-08-14T17:58:42.401Z,56.85
2022-08-14T18:01:17.031Z,56.85
2022-08-14T18:03:53.524Z,57.40
2022-08-14T18:06:39.518Z,56.86
2022-08-14T18:08:58.390Z,58.80
2022-08-14T18:11:45.616Z,59.04
2022-08-14T18:14:02.096Z,59.04
2022-08-14T18:16:32.653Z,60.01
2022-08-14T18:19:04.890Z,60.01
2022-08-14T18:21:56.985Z,59.48
2022-08-14T18:24:28.299Z,60.60
2022-08-14T18:26:40.731Z,60.60
2022-08-14T18:29:15.072Z,60.26
2022-08-14T18:31:45.578Z,59.50
2022-08-14T18:34:30.785Z,60.18
2022-08-14T18:36:57.502Z,60.21
2022-08-14T18:39:30.318Z,60.21
2022-08-14T18:42:23.591Z,58.14
2022-08-14T18:44:53.397Z,59.24
2022-08-14T18:47:25.429Z,59.41
2022-08-14T18:49:58.838Z,59.41
2022-08-14T18:52:38.336Z,57.88
2022-08-14T18:55:24.269Z,57.88
2022-08-14T18:58:00.707Z,58.70
2022-08-14T19:00:33.969Z,57.91
2022-08-14T19:03:08.884Z,59.32
2022-08-14T19:05:47.854Z,59.32
2022-08-14T19:08:22.142Z,59.37
2022-08-14T19:10:57.059Z,60.46
2022-08-14T19:13:48.373Z,60.62
2022-08-14T19:16:23.558Z,60.62
2022-08-14T19:19:00.260Z,60.19
2022-08-14T19:21:33.689Z,62.12
2022-08-14T19:24:30.081Z,62.12
2022-08-14T19:26:54.566Z,61.77
2022-08-14T19:29:38.320Z,61.01
2022-08-14T19:32:03.745Z,62.37
2022-08-14T19:34:52.112Z,60.80
2022-08-14T19:37:44.775Z,61.77
2022-08-14T19:40:33.865Z,62.36
2022-08-14T19:43:09.215Z,62.36
2022-08-14T19:45:39.316Z,61.77
2022-08-14T19:48:14.055Z,61.87
2022-08-14T19:50:44.988Z,61.20
2022-08-14T19:53:18.289Z,61.66
2022-08-14T19:56:04.773Z,63.21
2022-08-14T19:58:55.375Z,63.62
2022-08-14T20:01:17.915Z,61.11
2022-08-14T20:03:59.777Z,60.68
2022-08-14T20:06:23.539Z,60.24
2022-08-14T20:10:59.135Z,60.24
2022-08-14T20:12:00.141Z,58.75
2022-08-14T20:14:20.462Z,60.29
2022-08-14T20:16:55.892Z,59.53
2022-08-14T20:19:29.142Z,58.08
2022-08-14T20:22:35.483Z,55.44
2022-08-14T20:24:41.183Z,55.44
2022-08-14T20:27:29.710Z,57.05
2022-08-14T20:30:29.763Z,57.54
2022-08-14T20:32:47.333Z,54.61
2022-08-14T20:35:41.853Z,55.44
2022-08-14T20:38:30.971Z,55.44
2022-08-14T20:40:57.924Z,56.38
2022-08-14T20:43:35.413Z,55.26
2022-08-14T20:46:21.037Z,54.87
2022-08-14T20:49:23.885Z,55.95
2022-08-14T20:51:58.718Z,55.94
2022-08-14T20:54:34.219Z,55.44
2022-08-14T20:57:10.719Z,55.94
2022-08-14T20:59:45.202Z,55.42
2022-08-14T21:02:29.743Z,53.53
2022-08-14T21:05:04.642Z,53.53
2022-08-14T21:07:39.086Z,55.22
2022-08-14T21:10:33.256Z,55.22
2022-08-14T21:13:25.943Z,55.04
2022-08-14T21:15:17.020Z,55.04
2022-08-14T21:17:48.969Z,54.28
2022-08-14T21:20:26.067Z,54.10
2022-08-14T21:22:56.645Z,54.19
2022-08-14T21:25:31.468Z,53.98
2022-08-14T21:37:10.607Z,55.28
2022-08-14T21:39:40.922Z,54.54
2022-08-14T22:00:02.009Z,55.55
2022-08-14T22:02:33.520Z,55.69
2022-08-14T22:05:04.528Z,54.71
2022-08-14T22:07:37.031Z,55.36
2022-08-14T22:10:11.564Z,55.36
2022-08-14T22:12:45.298Z,54.41
2022-08-14T22:15:17.495Z,54.95
2022-08-14T22:17:52.330Z,54.95
2022-08-14T22:20:21.175Z,54.61
2022-08-14T22:22:56.084Z,55.14
2022-08-14T22:25:33.896Z,55.72
2022-08-14T22:27:57.715Z,54.79
2022-08-14T22:30:28.379Z,56.76
2022-08-14T22:33:00.380Z,56.76
2022-08-14T22:35:31.180Z,58.89
2022-08-14T22:38:37.235Z,55.81
2022-08-14T22:41:03.487Z,54.47
2022-08-14T22:43:08.925Z,55.50
2022-08-14T22:45:40.886Z,54.96
2022-08-14T22:48:13.827Z,54.96
2022-08-14T22:50:48.947Z,56.25
2022-08-14T22:53:18.998Z,56.25
2022-08-14T22:55:52.129Z,55.29
2022-08-14T22:58:31.399Z,55.29
2022-08-14T23:00:55.898Z,55.71
2022-08-14T23:03:26.402Z,54.60
2022-08-14T23:05:59.199Z,55.17
2022-08-14T23:08:57.984Z,55.61
2022-08-14T23:11:04.133Z,55.03
2022-08-14T23:13:34.447Z,53.92
2022-08-14T23:16:09.495Z,53.92
2022-08-14T23:18:39.874Z,54.49
2022-08-14T23:21:13.743Z,53.86
2022-08-14T23:23:44.896Z,55.75
2022-08-14T23:26:47.176Z,55.61
2022-08-14T23:28:56.856Z,54.94
2022-08-14T23:31:34.141Z,54.51
2022-08-14T23:33:54.357Z,54.51
2022-08-14T23:36:28.368Z,53.74
2022-08-14T23:38:59.003Z,54.04
2022-08-14T23:41:47.045Z,55.11
2022-08-14T23:44:02.532Z,55.55
2022-08-14T23:46:34.624Z,54.11
2022-08-14T23:49:26.060Z,56.56
2022-08-14T23:51:59.789Z,56.56
2022-08-14T23:54:49.200Z,56.95
2022-08-14T23:57:03.934Z,55.26
2022-08-14T23:59:33.253Z,55.26
